createdAt,value
2022-12-02T00:00:00.632Z,63.38
2022-12-02T00:05:29.353Z,63.04
2022-12-02T00:10:34.276Z,62.94
2022-12-02T00:15:43.456Z,63.10
2022-12-02T00:20:46.754Z,63.42
2022-12-02T00:25:51.539Z,63.52
2022-12-02T00:30:53.985Z,63.91
2022-12-02T00:35:56.394Z,63.40
2022-12-02T00:40:58.907Z,63.48
2022-12-02T00:46:20.461Z,63.58
2022-12-02T00:51:23.059Z,63.43
2022-12-02T00:56:25.635Z,63.32
2022-12-02T01:01:30.052Z,63.31
2022-12-02T01:06:32.742Z,63.13
2022-12-02T01:11:35.196Z,63.04
2022-12-02T01:16:38.234Z,63.38
2022-12-02T01:21:40.905Z,63.65
2022-12-02T01:26:43.480Z,63.65
2022-12-02T01:31:46.175Z,63.41
2022-12-02T01:36:48.781Z,62.81
2022-12-02T01:42:10.612Z,62.93
2022-12-02T01:47:31.906Z,63.42
2022-12-02T01:52:57.817Z,63.19
2022-12-02T01:58:21.195Z,62.92
2022-12-02T02:03:42.025Z,63.14
2022-12-02T02:09:02.683Z,63.39
2022-12-02T02:14:07.704Z,63.63
2022-12-02T02:19:13.936Z,63.39
2022-12-02T02:24:16.395Z,62.96
2022-12-02T02:29:19.682Z,63.90
2022-12-02T02:34:24.320Z,63.88
2022-12-02T02:39:27.367Z,63.84
2022-12-02T02:44:31.104Z,63.61
2022-12-02T02:49:33.740Z,63.69
2022-12-02T02:54:39.695Z,63.50
2022-12-02T02:59:43.497Z,63.91
2022-12-02T03:04:47.584Z,63.63
2022-12-02T03:09:50.847Z,63.36
2022-12-02T03:14:53.872Z,63.34
2022-12-02T03:19:56.964Z,63.48
2022-12-02T03:24:59.492Z,63.19
2022-12-02T03:30:02.299Z,63.11
2022-12-02T03:35:07.806Z,62.95
2022-12-02T03:40:10.984Z,62.73
2022-12-02T03:45:16.238Z,63.44
2022-12-02T03:50:19.382Z,63.50
2022-12-02T03:55:24.325Z,63.64
2022-12-02T04:00:26.887Z,63.15
2022-12-02T04:05:29.497Z,63.03
2022-12-02T04:10:32.064Z,63.06
2022-12-02T04:15:34.613Z,63.45
2022-12-02T04:20:37.295Z,63.17
2022-12-02T04:25:39.728Z,63.66
2022-12-02T04:30:42.569Z,63.15
2022-12-02T04:35:44.876Z,64.04
2022-12-02T04:40:47.500Z,64.00
2022-12-02T04:45:50.125Z,63.60
2022-12-02T04:50:52.616Z,63.79
2022-12-02T04:55:55.176Z,64.43
2022-12-02T05:00:57.642Z,64.31
2022-12-02T05:06:00.841Z,64.29
2022-12-02T05:11:03.472Z,64.24
2022-12-02T05:16:06.327Z,64.16
2022-12-02T05:21:08.940Z,63.86
2022-12-02T05:26:12.150Z,63.92
2022-12-02T05:31:14.808Z,63.73
2022-12-02T05:36:17.289Z,63.14
2022-12-02T05:41:20.495Z,63.51
2022-12-02T05:46:23.074Z,64.36
2022-12-02T05:51:26.676Z,63.64
2022-12-02T05:56:29.303Z,63.23
2022-12-02T06:01:35.965Z,63.66
2022-12-02T06:06:41.798Z,63.82
2022-12-02T06:11:46.412Z,63.15
2022-12-02T06:16:54.645Z,63.55
2022-12-02T06:21:59.561Z,63.24
2022-12-02T06:27:03.575Z,63.73
2022-12-02T06:32:11.808Z,63.02
2022-12-02T06:37:32.714Z,63.21
2022-12-02T06:42:54.006Z,63.16
2022-12-02T06:48:00.899Z,62.78
2022-12-02T06:53:20.314Z,63.79
2022-12-02T06:58:38.633Z,63.69
2022-12-02T07:04:03.733Z,62.79
2022-12-02T07:09:18.049Z,62.51
2022-12-02T07:14:26.646Z,62.37
2022-12-02T07:19:43.037Z,62.62
2022-12-02T07:24:58.897Z,62.14
2022-12-02T07:30:03.067Z,62.10
2022-12-02T07:35:06.719Z,63.28
2022-12-02T07:40:09.634Z,62.10
2022-12-02T07:45:13.692Z,62.52
2022-12-02T07:50:34.923Z,62.16
2022-12-02T07:55:56.405Z,61.88
2022-12-02T08:01:19.762Z,61.93
2022-12-02T08:06:41.296Z,61.73
2022-12-02T08:12:02.362Z,61.28
2022-12-02T08:17:23.611Z,60.92
2022-12-02T08:22:44.889Z,61.25
2022-12-02T08:28:05.912Z,59.67
2022-12-02T08:33:26.873Z,60.13
2022-12-02T08:38:48.245Z,60.42
2022-12-02T08:44:09.305Z,59.75
2022-12-02T08:49:30.459Z,59.74
2022-12-02T08:54:51.824Z,59.74
2022-12-02T08:59:54.522Z,60.11
2022-12-02T09:04:57.052Z,60.98
2022-12-02T09:09:59.587Z,61.46
2022-12-02T09:15:02.164Z,61.12
2022-12-02T09:20:07.220Z,61.55
2022-12-02T09:25:09.750Z,61.16
2022-12-02T09:30:12.543Z,60.90
2022-12-02T09:35:15.140Z,60.42
2022-12-02T09:40:18.519Z,61.17
2022-12-02T09:45:21.100Z,60.59
2022-12-02T09:50:23.772Z,61.11
2022-12-02T09:55:26.307Z,62.23
2022-12-02T10:00:52.105Z,61.44
2022-12-02T10:05:55.387Z,61.79
2022-12-02T10:10:58.111Z,60.75
2022-12-02T10:16:03.107Z,61.09
2022-12-02T10:21:05.841Z,60.60
2022-12-02T10:26:21.260Z,61.89
2022-12-02T10:31:29.379Z,62.88
2022-12-02T10:36:42.805Z,62.56
2022-12-02T10:41:45.940Z,62.26
2022-12-02T10:46:49.588Z,62.60
2022-12-02T10:51:52.411Z,62.29
2022-12-02T10:56:56.920Z,62.93
2022-12-02T11:02:00.279Z,64.39
2022-12-02T11:07:02.856Z,63.94
2022-12-02T11:13:04.861Z,64.23
2022-12-02T11:18:25.958Z,64.44
2022-12-02T11:23:30.119Z,64.91
2022-12-02T11:28:35.236Z,64.73
2022-12-02T11:33:44.272Z,65.13
2022-12-02T11:38:51.544Z,64.48
2022-12-02T11:44:28.736Z,64.83
2022-12-02T11:49:38.235Z,64.74
2022-12-02T11:54:45.738Z,65.58
2022-12-02T11:59:49.173Z,65.88
2022-12-02T12:05:02.286Z,65.75
2022-12-02T12:10:05.725Z,66.03
2022-12-02T12:15:08.507Z,66.66
2022-12-02T12:20:35.797Z,66.56
2022-12-02T12:25:56.682Z,66.43
2022-12-02T12:31:18.094Z,67.15
2022-12-02T12:36:40.074Z,66.69
2022-12-02T12:42:02.184Z,66.49
2022-12-02T12:47:23.845Z,67.20
2022-12-02T12:52:44.750Z,67.56
2022-12-02T12:58:05.971Z,68.61
2022-12-02T13:03:27.289Z,69.30
2022-12-02T13:08:48.661Z,69.59
2022-12-02T13:14:28.320Z,69.87
2022-12-02T13:19:49.339Z,69.82
2022-12-02T13:25:11.860Z,70.08
2022-12-02T13:30:36.538Z,70.43
2022-12-02T13:36:01.652Z,69.91
2022-12-02T13:41:22.454Z,70.13
2022-12-02T13:46:43.665Z,69.88
2022-12-02T13:52:05.114Z,69.99
2022-12-02T13:57:07.710Z,69.86
2022-12-02T14:02:12.056Z,69.73
2022-12-02T14:07:14.572Z,69.38
2022-12-02T14:12:17.113Z,69.93
2022-12-02T14:17:19.594Z,69.88
2022-12-02T14:22:22.157Z,70.23
2022-12-02T14:27:25.918Z,69.84
2022-12-02T14:32:28.444Z,69.40
2022-12-02T14:37:49.470Z,69.73
2022-12-02T14:43:14.381Z,69.09
2022-12-02T14:48:35.575Z,69.49
2022-12-02T14:53:38.029Z,69.54
2022-12-02T14:58:40.491Z,69.92
2022-12-02T15:03:42.888Z,69.21
2022-12-02T15:08:45.335Z,69.02
2022-12-02T15:13:47.776Z,69.03
2022-12-02T15:19:08.496Z,69.47
2022-12-02T15:24:11.036Z,69.87
2022-12-02T15:29:13.628Z,69.60
2022-12-02T15:34:16.212Z,69.80
2022-12-02T15:39:18.969Z,69.32
2022-12-02T15:44:22.365Z,69.93
2022-12-02T15:49:24.846Z,69.50
2022-12-02T15:54:29.472Z,69.06
2022-12-02T15:59:31.944Z,68.74
2022-12-02T16:04:34.496Z,68.56
2022-12-02T16:09:37.021Z,69.14
2022-12-02T16:14:39.584Z,68.92
2022-12-02T16:19:42.101Z,68.94
2022-12-02T16:24:44.609Z,68.95
2022-12-02T16:29:47.203Z,68.75
2022-12-02T16:34:50.006Z,69.31
2022-12-02T16:39:52.974Z,68.65
2022-12-02T16:44:56.140Z,68.84
2022-12-02T16:49:58.897Z,69.35
2022-12-02T16:55:01.382Z,69.26
2022-12-02T17:00:06.767Z,68.43
2022-12-02T17:05:10.177Z,67.94
2022-12-02T17:10:13.252Z,67.57
2022-12-02T17:15:15.707Z,67.88
2022-12-02T17:20:18.393Z,67.30
2022-12-02T17:25:20.869Z,67.24
2022-12-02T17:30:23.429Z,67.38
2022-12-02T17:35:25.935Z,67.38
2022-12-02T17:40:28.424Z,67.42
2022-12-02T17:45:31.040Z,67.27
2022-12-02T17:50:34.374Z,67.73
2022-12-02T17:55:36.893Z,67.54
2022-12-02T18:00:39.497Z,67.57
2022-12-02T18:05:41.976Z,67.23
2022-12-02T18:10:48.114Z,66.97
2022-12-02T18:15:51.670Z,66.58
2022-12-02T18:20:54.189Z,66.79
2022-12-02T18:25:56.762Z,66.91
2022-12-02T18:30:59.912Z,67.58
2022-12-02T18:36:02.493Z,66.67
2022-12-02T18:41:05.060Z,67.01
2022-12-02T18:46:07.871Z,66.83
2022-12-02T18:51:10.479Z,66.89
2022-12-02T18:56:12.930Z,66.89
2022-12-02T19:01:15.409Z,67.56
2022-12-02T19:06:17.916Z,67.36
2022-12-02T19:11:20.416Z,66.62
2022-12-02T19:16:22.967Z,67.28
2022-12-02T19:21:25.618Z,66.35
2022-12-02T19:26:28.097Z,66.94
2022-12-02T19:31:32.295Z,66.58
2022-12-02T19:36:34.938Z,66.28
2022-12-02T19:41:37.451Z,65.90
2022-12-02T19:46:40.041Z,62.76
2022-12-02T19:51:42.608Z,62.21
2022-12-02T19:56:45.094Z,61.10
2022-12-02T20:01:47.735Z,60.52
2022-12-02T20:06:55.280Z,60.22
2022-12-02T20:11:58.251Z,59.66
2022-12-02T20:17:00.744Z,59.83
2022-12-02T20:22:03.299Z,60.51
2022-12-02T20:27:05.921Z,61.32
2022-12-02T20:32:08.473Z,61.80
2022-12-02T20:37:11.881Z,61.82
2022-12-02T20:42:14.461Z,61.33
2022-12-02T20:47:16.967Z,61.15
2022-12-02T20:52:19.725Z,61.38
2022-12-02T20:57:22.348Z,62.16
2022-12-02T21:02:24.960Z,63.12
2022-12-02T21:07:27.531Z,62.82
2022-12-02T21:12:29.992Z,63.30
2022-12-02T21:17:32.916Z,63.98
2022-12-02T21:22:35.428Z,63.41
2022-12-02T21:27:37.971Z,63.71
2022-12-02T21:32:40.648Z,63.72
2022-12-02T21:37:43.258Z,64.31
2022-12-02T21:42:45.834Z,63.89
2022-12-02T21:47:48.431Z,63.22
2022-12-02T21:52:51.719Z,63.05
2022-12-02T21:57:54.203Z,62.81
2022-12-02T22:02:56.762Z,62.21
2022-12-02T22:07:59.262Z,62.04
2022-12-02T22:13:01.870Z,61.29
2022-12-02T22:18:04.422Z,61.08
2022-12-02T22:23:06.872Z,61.69
2022-12-02T22:28:10.489Z,61.80
2022-12-02T22:33:12.979Z,61.73
2022-12-02T22:38:15.594Z,61.62
2022-12-02T22:43:18.226Z,61.48
2022-12-02T22:48:20.816Z,61.14
2022-12-02T22:53:23.294Z,61.01
2022-12-02T22:58:25.802Z,61.20
2022-12-02T23:03:28.547Z,60.63
2022-12-02T23:08:31.030Z,60.44
2022-12-02T23:13:33.829Z,60.83
2022-12-02T23:18:36.454Z,60.59
2022-12-02T23:23:38.919Z,60.61
2022-12-02T23:28:41.463Z,61.16
2022-12-02T23:33:44.089Z,60.75
2022-12-02T23:38:46.713Z,61.18
2022-12-02T23:43:49.271Z,60.99
2022-12-02T23:48:51.855Z,60.48
2022-12-02T23:53:54.322Z,60.12
2022-12-02T23:58:56.926Z,60.60
